createdAt,value
2019-01-15T00:00:08.100Z,3.90
2019-01-15T00:02:36.679Z,3.91
2019-01-15T00:05:06.661Z,3.93
2019-01-15T00:07:35.120Z,4.01
2019-01-15T00:10:05.375Z,3.95
2019-01-15T00:12:33.878Z,3.98
2019-01-15T00:15:02.383Z,3.87
2019-01-15T00:17:32.444Z,3.86
2019-01-15T00:20:00.926Z,3.82
2019-01-15T00:22:29.485Z,3.85
2019-01-15T00:24:57.922Z,3.83
2019-01-15T00:27:26.484Z,3.81
2019-01-15T00:29:54.927Z,3.85
2019-01-15T00:32:23.372Z,3.89
2019-01-15T00:34:53.344Z,3.89
2019-01-15T00:37:21.793Z,3.86
2019-01-15T00:39:51.889Z,3.84
2019-01-15T00:42:20.361Z,3.82
2019-01-15T00:44:48.821Z,3.87
2019-01-15T00:47:17.332Z,3.82
2019-01-15T00:49:46.074Z,3.78
2019-01-15T00:52:14.579Z,3.79
2019-01-15T00:54:44.785Z,3.77
2019-01-15T00:57:13.202Z,3.74
2019-01-15T00:59:41.683Z,3.68
2019-01-15T01:02:10.201Z,3.72
2019-01-15T01:04:38.725Z,3.77
2019-01-15T01:07:07.239Z,3.72
2019-01-15T01:09:35.927Z,3.71
2019-01-15T01:12:04.411Z,3.69
2019-01-15T01:14:32.833Z,3.68
2019-01-15T01:17:01.435Z,3.63
2019-01-15T01:19:29.875Z,3.64
2019-01-15T01:21:58.421Z,3.67
2019-01-15T01:24:28.092Z,3.66
2019-01-15T01:26:56.548Z,3.64
2019-01-15T01:29:24.971Z,3.65
2019-01-15T01:31:55.083Z,3.63
2019-01-15T01:34:25.067Z,3.63
2019-01-15T01:36:53.516Z,3.65
2019-01-15T01:39:21.985Z,3.68
2019-01-15T01:41:51.813Z,3.67
2019-01-15T01:44:20.279Z,3.64
2019-01-15T01:46:48.729Z,3.67
2019-01-15T01:49:17.257Z,3.65
2019-01-15T01:51:45.707Z,3.61
2019-01-15T01:54:14.177Z,3.62
2019-01-15T01:56:42.662Z,3.72
2019-01-15T01:59:11.107Z,3.79
2019-01-15T02:01:39.538Z,3.78
2019-01-15T02:04:07.993Z,3.70
2019-01-15T02:06:37.984Z,3.74
2019-01-15T02:09:07.976Z,3.71
2019-01-15T02:11:36.588Z,3.66
2019-01-15T02:14:05.198Z,3.70
2019-01-15T02:16:33.648Z,3.70
2019-01-15T02:19:02.084Z,3.67
2019-01-15T02:21:30.553Z,3.69
2019-01-15T02:24:01.452Z,3.72
2019-01-15T02:26:32.597Z,3.71
2019-01-15T02:29:01.026Z,3.72
2019-01-15T02:31:29.523Z,3.82
2019-01-15T02:33:57.950Z,3.81
2019-01-15T02:36:26.434Z,3.88
2019-01-15T02:38:54.838Z,3.87
2019-01-15T02:41:23.387Z,3.82
2019-01-15T02:43:53.859Z,3.87
2019-01-15T02:46:22.326Z,3.90
2019-01-15T02:48:50.845Z,3.84
2019-01-15T02:51:19.797Z,3.89
2019-01-15T02:53:48.274Z,3.86
2019-01-15T02:56:16.764Z,3.82
2019-01-15T02:58:46.705Z,3.88
2019-01-15T03:01:15.159Z,3.86
2019-01-15T03:03:43.697Z,3.85
2019-01-15T03:06:12.343Z,3.87
2019-01-15T03:08:40.747Z,3.88
2019-01-15T03:11:09.204Z,3.93
2019-01-15T03:13:39.737Z,3.98
2019-01-15T03:16:08.269Z,4.02
2019-01-15T03:18:36.714Z,4.10
2019-01-15T03:21:05.304Z,4.09
2019-01-15T03:23:33.759Z,4.13
2019-01-15T03:26:02.339Z,4.11
2019-01-15T03:28:30.765Z,4.10
2019-01-15T03:31:02.297Z,4.10
2019-01-15T03:33:30.781Z,4.14
2019-01-15T03:36:00.170Z,4.11
2019-01-15T03:38:28.609Z,4.12
2019-01-15T03:40:57.062Z,4.14
2019-01-15T03:43:25.501Z,4.16
2019-01-15T03:45:54.004Z,4.19
2019-01-15T03:48:22.451Z,4.22
2019-01-15T03:50:50.939Z,4.28
2019-01-15T03:53:21.088Z,4.25
2019-01-15T03:55:49.645Z,4.27
2019-01-15T03:58:18.094Z,4.30
2019-01-15T04:00:46.606Z,4.32
2019-01-15T04:03:15.166Z,4.26
2019-01-15T04:05:43.637Z,4.29
2019-01-15T04:08:12.093Z,4.30
2019-01-15T04:10:40.585Z,4.33
2019-01-15T04:13:11.452Z,4.37
2019-01-15T04:15:39.240Z,4.36
2019-01-15T04:18:07.824Z,4.36
2019-01-15T04:20:36.396Z,4.38
2019-01-15T04:23:04.916Z,4.38
2019-01-15T04:25:33.408Z,4.33
2019-01-15T04:28:01.975Z,4.31
2019-01-15T04:30:30.669Z,4.32
2019-01-15T04:32:59.154Z,4.33
2019-01-15T04:35:27.552Z,4.37
2019-01-15T04:37:56.048Z,4.36
2019-01-15T04:40:24.474Z,4.37
2019-01-15T04:42:52.992Z,4.35
2019-01-15T04:45:23.523Z,4.38
2019-01-15T04:47:52.041Z,4.34
2019-01-15T04:50:20.640Z,4.31
2019-01-15T04:52:50.846Z,4.34
2019-01-15T04:55:19.419Z,4.33
2019-01-15T04:57:47.876Z,4.31
2019-01-15T05:00:18.978Z,4.29
2019-01-15T05:02:48.007Z,4.34
2019-01-15T05:05:16.780Z,4.37
2019-01-15T05:07:45.369Z,4.37
2019-01-15T05:10:15.444Z,4.39
2019-01-15T05:12:44.008Z,4.36
2019-01-15T05:15:16.929Z,4.44
2019-01-15T05:17:45.497Z,4.43
2019-01-15T05:20:18.646Z,4.37
2019-01-15T05:22:47.405Z,4.35
2019-01-15T05:25:18.711Z,4.39
2019-01-15T05:27:47.192Z,4.42
2019-01-15T05:30:24.078Z,4.44
2019-01-15T05:32:52.657Z,4.48
2019-01-15T05:35:21.162Z,4.44
2019-01-15T05:37:51.018Z,4.51
2019-01-15T05:40:20.136Z,4.54
2019-01-15T05:42:48.815Z,4.57
2019-01-15T05:45:21.110Z,4.55
2019-01-15T05:47:51.514Z,4.64
2019-01-15T05:50:21.738Z,4.68
2019-01-15T05:52:50.254Z,4.74
2019-01-15T05:55:18.679Z,4.71
2019-01-15T05:57:47.190Z,4.74
2019-01-15T06:00:18.719Z,4.76
2019-01-15T06:02:47.189Z,4.79
2019-01-15T06:05:16.369Z,4.82
2019-01-15T06:07:44.849Z,4.82
2019-01-15T06:10:15.300Z,4.86
2019-01-15T06:12:43.831Z,4.88
2019-01-15T06:15:14.559Z,4.89
2019-01-15T06:17:42.999Z,4.93
2019-01-15T06:20:23.361Z,4.98
2019-01-15T06:22:51.919Z,5.04
2019-01-15T06:25:20.721Z,5.08
2019-01-15T06:27:51.010Z,5.00
2019-01-15T06:30:22.609Z,5.03
2019-01-15T06:32:51.039Z,4.98
2019-01-15T06:35:19.647Z,4.96
2019-01-15T06:37:48.188Z,5.00
2019-01-15T06:40:20.807Z,4.95
2019-01-15T06:42:49.448Z,4.91
2019-01-15T06:45:31.490Z,4.93
2019-01-15T06:48:01.936Z,4.91
2019-01-15T06:50:30.377Z,4.90
2019-01-15T06:52:58.898Z,4.92
2019-01-15T06:55:31.819Z,4.93
2019-01-15T06:58:00.227Z,4.95
2019-01-15T07:00:30.515Z,4.96
2019-01-15T07:03:00.213Z,4.98
2019-01-15T07:05:29.046Z,4.93
2019-01-15T07:07:57.471Z,4.92
2019-01-15T07:10:28.951Z,4.97
2019-01-15T07:12:57.502Z,4.85
2019-01-15T07:15:26.061Z,4.87
2019-01-15T07:17:56.889Z,4.81
2019-01-15T07:20:25.437Z,4.80
2019-01-15T07:22:54.048Z,4.84
2019-01-15T07:25:24.696Z,4.83
2019-01-15T07:27:53.186Z,4.83
2019-01-15T07:30:36.767Z,4.85
2019-01-15T07:33:06.154Z,4.83
2019-01-15T07:35:35.112Z,4.86
2019-01-15T07:38:03.619Z,4.89
2019-01-15T07:40:32.072Z,4.91
2019-01-15T07:43:00.654Z,4.89
2019-01-15T07:45:29.243Z,4.92
2019-01-15T07:47:57.753Z,4.96
2019-01-15T07:50:26.256Z,4.99
2019-01-15T07:52:54.836Z,5.04
2019-01-15T07:55:23.501Z,5.08
2019-01-15T07:57:52.061Z,5.16
2019-01-15T08:00:25.079Z,5.21
2019-01-15T08:02:54.395Z,5.27
2019-01-15T08:05:24.695Z,5.29
2019-01-15T08:07:53.199Z,5.36
2019-01-15T08:10:21.742Z,5.40
2019-01-15T08:12:50.741Z,5.50
2019-01-15T08:15:24.890Z,5.53
2019-01-15T08:17:53.329Z,5.54
2019-01-15T08:20:22.026Z,5.58
2019-01-15T08:22:50.566Z,5.59
2019-01-15T08:25:19.500Z,5.56
2019-01-15T08:27:48.000Z,5.57
2019-01-15T08:30:28.218Z,5.59
2019-01-15T08:32:58.235Z,5.64
2019-01-15T08:35:26.753Z,5.64
2019-01-15T08:37:55.455Z,5.64
2019-01-15T08:40:24.097Z,5.67
2019-01-15T08:42:52.607Z,5.64
2019-01-15T08:45:21.159Z,5.65
2019-01-15T08:47:54.351Z,5.70
2019-01-15T08:50:30.827Z,5.63
2019-01-15T08:52:59.414Z,5.61
2019-01-15T08:55:28.009Z,5.63
2019-01-15T08:57:56.515Z,5.71
2019-01-15T09:00:25.071Z,5.78
2019-01-15T09:02:53.526Z,5.77
2019-01-15T09:05:22.146Z,5.82
2019-01-15T09:07:52.108Z,5.79
2019-01-15T09:10:20.636Z,5.81
2019-01-15T09:12:49.235Z,5.80
2019-01-15T09:15:22.123Z,5.82
2019-01-15T09:17:50.740Z,5.83
2019-01-15T09:20:20.927Z,5.87
2019-01-15T09:22:51.164Z,5.88
2019-01-15T09:25:19.695Z,5.91
2019-01-15T09:27:48.282Z,5.91
2019-01-15T09:30:18.869Z,5.93
2019-01-15T09:32:47.512Z,5.97
2019-01-15T09:35:16.050Z,6.00
2019-01-15T09:37:46.042Z,5.97
2019-01-15T09:40:17.381Z,6.06
2019-01-15T09:42:45.932Z,6.05
2019-01-15T09:45:16.672Z,6.10
2019-01-15T09:47:49.592Z,6.11
2019-01-15T09:50:19.654Z,6.14
2019-01-15T09:52:48.313Z,6.19
2019-01-15T09:55:16.951Z,6.21
2019-01-15T09:57:45.522Z,6.20
2019-01-15T10:00:16.732Z,6.21
2019-01-15T10:02:45.354Z,6.23
2019-01-15T10:05:13.887Z,6.20
2019-01-15T10:07:42.417Z,6.21
2019-01-15T10:10:13.846Z,6.22
2019-01-15T10:12:42.341Z,6.18
2019-01-15T10:15:14.022Z,6.26
2019-01-15T10:17:42.743Z,6.25
2019-01-15T10:20:13.069Z,6.28
2019-01-15T10:22:41.682Z,6.29
2019-01-15T10:25:12.200Z,6.30
2019-01-15T10:27:41.281Z,6.30
2019-01-15T10:30:20.004Z,6.33
2019-01-15T10:32:51.494Z,6.34
2019-01-15T10:35:22.998Z,6.34
2019-01-15T10:37:51.540Z,6.35
2019-01-15T10:40:20.006Z,6.39
2019-01-15T10:42:51.290Z,6.42
2019-01-15T10:45:20.057Z,6.40
2019-01-15T10:47:48.588Z,6.42
2019-01-15T10:50:17.359Z,6.44
2019-01-15T10:52:45.792Z,6.43
2019-01-15T10:55:14.271Z,6.47
2019-01-15T10:57:42.881Z,6.50
2019-01-15T11:00:13.653Z,6.49
2019-01-15T11:02:43.759Z,6.50
2019-01-15T11:05:12.860Z,6.52
2019-01-15T11:07:41.338Z,6.55
2019-01-15T11:10:12.833Z,6.55
2019-01-15T11:12:41.752Z,6.54
2019-01-15T11:15:10.328Z,6.60
2019-01-15T11:17:38.874Z,6.57
2019-01-15T11:20:13.327Z,6.60
2019-01-15T11:22:43.316Z,6.62
2019-01-15T11:25:11.919Z,6.63
2019-01-15T11:27:40.375Z,6.63
2019-01-15T11:30:11.928Z,6.64
2019-01-15T11:32:40.353Z,6.65
2019-01-15T11:35:13.036Z,6.67
2019-01-15T11:37:41.495Z,6.62
2019-01-15T11:40:15.968Z,6.62
2019-01-15T11:42:44.475Z,6.62
2019-01-15T11:45:18.832Z,6.66
2019-01-15T11:47:47.808Z,6.68
2019-01-15T11:50:18.708Z,6.68
2019-01-15T11:52:47.320Z,6.68
2019-01-15T11:55:15.816Z,6.72
2019-01-15T11:57:45.753Z,6.74
2019-01-15T12:00:36.816Z,6.71
2019-01-15T12:03:10.586Z,6.73
2019-01-15T12:05:58.090Z,6.75
2019-01-15T12:08:44.243Z,6.81
2019-01-15T12:11:14.386Z,6.82
2019-01-15T12:13:53.950Z,6.82
2019-01-15T12:16:29.964Z,6.83
2019-01-15T12:19:09.346Z,6.83
2019-01-15T12:21:45.138Z,6.85
2019-01-15T12:24:18.331Z,6.88
2019-01-15T12:27:00.737Z,6.90
2019-01-15T12:29:47.029Z,6.89
2019-01-15T12:32:17.124Z,6.92
2019-01-15T12:35:03.331Z,6.96
2019-01-15T12:37:33.621Z,6.91
2019-01-15T12:40:09.973Z,6.94
2019-01-15T12:42:48.780Z,6.98
2019-01-15T12:45:35.848Z,7.02
2019-01-15T12:48:18.647Z,7.02
2019-01-15T12:50:51.405Z,7.02
2019-01-15T12:53:27.627Z,7.04
2019-01-15T12:56:12.962Z,7.04
2019-01-15T12:58:43.106Z,7.10
2019-01-15T13:01:28.419Z,7.11
2019-01-15T13:04:04.283Z,7.15
2019-01-15T13:06:53.759Z,7.21
2019-01-15T13:09:29.764Z,7.21
2019-01-15T13:12:15.068Z,7.23
2019-01-15T13:14:53.980Z,7.25
2019-01-15T13:17:40.225Z,7.27
2019-01-15T13:20:13.417Z,7.28
2019-01-15T13:22:55.626Z,7.27
2019-01-15T13:25:42.340Z,7.28
2019-01-15T13:28:28.310Z,7.25
2019-01-15T13:31:02.557Z,7.25
2019-01-15T13:33:38.833Z,7.25
2019-01-15T13:36:27.651Z,7.25
2019-01-15T13:39:13.720Z,7.23
2019-01-15T13:41:46.657Z,7.32
2019-01-15T13:44:19.456Z,7.31
2019-01-15T13:47:01.409Z,7.31
2019-01-15T13:49:43.919Z,7.31
2019-01-15T13:52:30.516Z,7.37
2019-01-15T13:55:00.759Z,7.35
2019-01-15T13:57:30.971Z,7.35
2019-01-15T14:00:19.164Z,7.32
2019-01-15T14:03:01.430Z,7.31
2019-01-15T14:05:37.531Z,7.31
2019-01-15T14:08:10.214Z,7.33
2019-01-15T14:10:43.064Z,7.35
2019-01-15T14:13:41.928Z,7.38
2019-01-15T14:16:15.197Z,7.41
2019-01-15T14:18:47.602Z,7.40
2019-01-15T14:21:20.577Z,7.39
2019-01-15T14:23:50.750Z,7.41
2019-01-15T14:26:29.956Z,7.41
2019-01-15T14:29:09.170Z,7.37
2019-01-15T14:31:44.945Z,7.43
2019-01-15T14:34:27.086Z,7.44
2019-01-15T14:36:57.179Z,7.41
2019-01-15T14:39:36.234Z,7.45
2019-01-15T14:42:09.331Z,7.47
2019-01-15T14:44:45.169Z,7.46
2019-01-15T14:47:33.412Z,7.46
2019-01-15T14:50:12.742Z,7.46
2019-01-15T14:52:45.636Z,7.47
2019-01-15T14:55:32.794Z,7.48
2019-01-15T14:58:02.907Z,7.47
2019-01-15T15:00:49.429Z,7.55
2019-01-15T15:03:36.085Z,7.55
2019-01-15T15:06:12.844Z,7.56
2019-01-15T15:08:43.052Z,7.57
2019-01-15T15:11:27.899Z,7.60
2019-01-15T15:14:14.464Z,7.62
2019-01-15T15:16:47.999Z,7.64
2019-01-15T15:19:27.037Z,7.65
2019-01-15T15:22:06.203Z,7.64
2019-01-15T15:24:36.383Z,7.64
2019-01-15T15:27:06.683Z,7.65
2019-01-15T15:29:36.830Z,7.68
2019-01-15T15:32:22.902Z,7.67
2019-01-15T15:34:53.092Z,7.67
2019-01-15T15:37:29.180Z,7.69
2019-01-15T15:39:59.368Z,7.69
2019-01-15T15:42:32.004Z,7.72
2019-01-15T15:45:05.919Z,7.76
2019-01-15T15:47:54.440Z,7.72
2019-01-15T15:50:39.322Z,7.72
2019-01-15T15:53:12.123Z,7.66
2019-01-15T15:55:58.162Z,7.69
2019-01-15T15:58:29.412Z,7.68
2019-01-15T16:01:02.192Z,7.72
2019-01-15T16:03:35.097Z,7.75
2019-01-15T16:06:07.970Z,7.75
2019-01-15T16:08:44.070Z,7.78
2019-01-15T16:11:31.489Z,7.80
2019-01-15T16:14:03.951Z,7.84
2019-01-15T16:16:37.208Z,7.84
2019-01-15T16:19:10.258Z,7.79
2019-01-15T16:21:58.618Z,7.83
2019-01-15T16:24:36.398Z,7.86
2019-01-15T16:27:09.514Z,7.85
2019-01-15T16:29:45.516Z,7.84
2019-01-15T16:32:30.616Z,7.83
2019-01-15T16:35:00.817Z,7.90
2019-01-15T16:37:36.486Z,7.86
2019-01-15T16:40:14.859Z,7.86
2019-01-15T16:42:47.478Z,7.82
2019-01-15T16:45:34.011Z,7.89
2019-01-15T16:48:12.967Z,7.92
2019-01-15T16:50:58.913Z,7.92
2019-01-15T16:53:38.180Z,7.85
2019-01-15T16:56:08.381Z,7.89
2019-01-15T16:58:38.530Z,7.91
2019-01-15T17:01:24.934Z,7.90
2019-01-15T17:04:02.419Z,7.87
2019-01-15T17:06:44.668Z,7.87
2019-01-15T17:09:21.073Z,7.84
2019-01-15T17:12:07.388Z,7.84
2019-01-15T17:14:52.717Z,7.84
2019-01-15T17:17:35.220Z,7.74
2019-01-15T17:20:15.329Z,7.74
2019-01-15T17:22:45.424Z,7.70
2019-01-15T17:25:15.729Z,7.68
2019-01-15T17:27:51.754Z,7.59
2019-01-15T17:30:21.922Z,7.61
2019-01-15T17:33:10.163Z,7.61
2019-01-15T17:35:43.117Z,7.56
2019-01-15T17:38:19.317Z,7.56
2019-01-15T17:40:52.259Z,7.58
2019-01-15T17:43:22.331Z,7.59
2019-01-15T17:45:55.241Z,7.60
2019-01-15T17:48:41.697Z,7.57
2019-01-15T17:51:21.167Z,7.60
2019-01-15T17:54:03.196Z,7.65
2019-01-15T17:56:42.285Z,7.52
2019-01-15T17:59:18.104Z,7.52
2019-01-15T18:01:56.831Z,7.54
2019-01-15T18:04:29.452Z,7.58
2019-01-15T18:06:59.674Z,7.58
2019-01-15T18:09:29.834Z,7.59
2019-01-15T18:12:09.393Z,7.55
2019-01-15T18:14:39.562Z,7.53
2019-01-15T18:17:12.530Z,7.57
2019-01-15T18:19:58.640Z,7.53
2019-01-15T18:22:37.644Z,7.54
2019-01-15T18:25:14.841Z,7.55
2019-01-15T18:27:56.790Z,7.55
2019-01-15T18:30:45.012Z,7.59
2019-01-15T18:33:15.415Z,7.59
2019-01-15T18:35:50.047Z,7.57
2019-01-15T18:38:20.162Z,7.47
2019-01-15T18:40:55.899Z,7.47
2019-01-15T18:43:44.072Z,7.47
2019-01-15T18:46:16.821Z,7.48
2019-01-15T18:48:56.731Z,7.43
2019-01-15T18:51:33.051Z,7.40
2019-01-15T18:54:09.058Z,7.42
2019-01-15T18:56:54.357Z,7.46
2019-01-15T18:59:33.413Z,7.43
2019-01-15T19:02:30.203Z,7.37
2019-01-15T19:05:18.504Z,7.37
2019-01-15T19:07:57.801Z,7.40
2019-01-15T19:10:27.899Z,7.40
2019-01-15T19:13:00.807Z,7.41
2019-01-15T19:15:48.953Z,7.45
2019-01-15T19:18:25.703Z,7.41
2019-01-15T19:20:55.768Z,7.36
2019-01-15T19:23:38.275Z,7.28
2019-01-15T19:26:08.450Z,7.31
2019-01-15T19:28:38.547Z,7.31
2019-01-15T19:31:08.634Z,7.26
2019-01-15T19:33:44.496Z,7.27
2019-01-15T19:36:14.603Z,7.30
2019-01-15T19:38:47.154Z,7.30
2019-01-15T19:41:26.041Z,7.28
2019-01-15T19:43:58.908Z,7.23
2019-01-15T19:46:29.144Z,7.21
2019-01-15T19:48:59.381Z,7.21
2019-01-15T19:51:32.253Z,7.23
2019-01-15T19:54:04.765Z,7.25
2019-01-15T19:56:34.920Z,7.25
2019-01-15T19:59:16.830Z,7.23
2019-01-15T20:01:49.774Z,7.25
2019-01-15T20:04:36.865Z,7.22
2019-01-15T20:07:08.890Z,7.28
2019-01-15T20:09:54.349Z,7.27
2019-01-15T20:12:34.346Z,7.27
2019-01-15T20:15:05.599Z,7.27
2019-01-15T20:17:55.439Z,7.25
2019-01-15T20:20:32.041Z,7.25
2019-01-15T20:23:30.105Z,7.32
2019-01-15T20:26:08.652Z,7.27
2019-01-15T20:32:04.481Z,7.33
2019-01-15T20:34:47.581Z,7.32
2019-01-15T20:40:50.931Z,7.37
2019-01-15T20:43:34.230Z,7.37
2019-01-15T20:46:07.559Z,7.37
2019-01-15T20:48:54.314Z,7.38
2019-01-15T20:51:27.891Z,7.36
2019-01-15T20:54:08.486Z,7.36
2019-01-15T20:56:57.188Z,7.38
2019-01-15T20:59:30.932Z,7.38
2019-01-15T21:02:04.099Z,7.46
2019-01-15T21:04:50.474Z,7.47
2019-01-15T21:07:29.874Z,7.49
2019-01-15T21:10:00.486Z,7.52
2019-01-15T21:12:33.711Z,7.51
2019-01-15T21:15:06.897Z,7.55
2019-01-15T21:17:44.894Z,7.56
2019-01-15T21:20:31.527Z,7.63
2019-01-15T21:23:18.236Z,7.67
2019-01-15T21:25:55.864Z,7.67
2019-01-15T21:28:42.968Z,7.68
2019-01-15T21:31:29.627Z,7.68
2019-01-15T21:34:00.310Z,7.68
2019-01-15T21:36:36.902Z,7.77
2019-01-15T21:39:11.328Z,7.77
2019-01-15T21:41:46.234Z,7.78
2019-01-15T21:44:16.398Z,7.82
2019-01-15T21:46:46.847Z,7.82
2019-01-15T21:49:23.333Z,7.83
2019-01-15T21:52:02.663Z,7.86
2019-01-15T21:54:41.864Z,7.86
2019-01-15T21:57:21.429Z,7.91
2019-01-15T21:59:54.853Z,7.84
2019-01-15T22:02:25.435Z,7.85
2019-01-15T22:05:00.216Z,7.80
2019-01-15T22:07:32.066Z,7.86
2019-01-15T22:10:10.061Z,7.86
2019-01-15T22:12:49.570Z,7.84
2019-01-15T22:15:20.028Z,7.87
2019-01-15T22:17:50.469Z,7.81
2019-01-15T22:20:24.333Z,7.82
2019-01-15T22:22:56.484Z,7.84
2019-01-15T22:25:27.166Z,7.85
2019-01-15T22:28:13.280Z,7.82
2019-01-15T22:30:46.918Z,7.80
2019-01-15T22:33:20.494Z,7.71
2019-01-15T22:36:18.067Z,7.79
2019-01-15T22:39:21.089Z,7.79
2019-01-15T22:42:19.814Z,7.78
2019-01-15T22:44:50.479Z,7.79
2019-01-15T22:47:40.301Z,7.78
2019-01-15T22:50:16.025Z,7.80
2019-01-15T22:53:04.049Z,7.79
2019-01-15T22:55:53.543Z,7.82
2019-01-15T22:58:29.807Z,7.82
2019-01-15T23:01:20.387Z,7.84
2019-01-15T23:03:53.498Z,7.81
2019-01-15T23:06:32.202Z,7.85
2019-01-15T23:09:08.337Z,7.79
2019-01-15T23:11:44.598Z,7.79
2019-01-15T23:14:32.745Z,7.80
2019-01-15T23:17:05.569Z,7.81
2019-01-15T23:19:44.750Z,7.86
2019-01-15T23:22:30.635Z,7.76
2019-01-15T23:25:16.861Z,7.76
2019-01-15T23:28:02.243Z,7.75
2019-01-15T23:30:48.816Z,7.76
2019-01-15T23:33:21.579Z,7.75
2019-01-15T23:35:54.110Z,7.72
2019-01-15T23:38:24.199Z,7.75
2019-01-15T23:41:10.571Z,7.75
2019-01-15T23:43:57.155Z,7.75
2019-01-15T23:46:28.684Z,7.71
2019-01-15T23:48:58.773Z,7.73
2019-01-15T23:51:44.813Z,7.73
2019-01-15T23:54:14.968Z,7.77
2019-01-15T23:56:54.783Z,7.70
2019-01-15T23:59:27.649Z,7.70
